Time;durP1;ratioP1;P1;durP2;ratioP2;P2;SDS_P1;SDS_P2;PMS_P1;PMS_P2;Temp;Humidity;BMP_temperature;BMP_pressure;BME280_temperature;BME280_humidity;BME280_pressure;Samples;Min_cycle;Max_cycle;Signal;HPM_P1;HPM_P2
2022/02/27 00:01:23;;;;;;;15.82;5.45;;;2.10;99.90;;;;;;5046129;28;20048;-51
2022/02/27 00:03:49;;;;;;;16.13;5.85;;;2.10;99.90;;;;;;5027716;28;20044;-49
2022/02/27 00:06:15;;;;;;;15.70;5.05;;;2.10;99.90;;;;;;5058142;28;20058;-54
2022/02/27 00:08:41;;;;;;;30.65;7.53;;;2.10;99.90;;;;;;5065057;28;20053;-56
2022/02/27 00:11:07;;;;;;;29.98;6.40;;;2.00;99.90;;;;;;5064172;28;20032;-61
2022/02/27 00:13:33;;;;;;;19.52;5.57;;;2.00;99.90;;;;;;5065297;28;20398;-47
2022/02/27 00:15:59;;;;;;;26.38;5.85;;;1.90;99.90;;;;;;5047013;28;20044;-52
2022/02/27 00:18:25;;;;;;;31.75;6.05;;;1.90;99.90;;;;;;5067479;28;20124;-58
2022/02/27 00:20:52;;;;;;;18.48;5.70;;;1.80;99.90;;;;;;5066817;28;20609;-56
2022/02/27 00:23:18;;;;;;;18.70;5.00;;;1.80;99.90;;;;;;5055177;28;20158;-58
2022/02/27 00:25:43;;;;;;;18.08;5.75;;;1.80;99.90;;;;;;5055866;28;20128;-53
2022/02/27 00:28:09;;;;;;;19.83;5.53;;;1.80;99.90;;;;;;5048858;28;20037;-51
2022/02/27 00:30:38;;;;;;;19.17;5.75;;;1.80;99.90;;;;;;5031151;28;20071;-49
2022/02/27 00:33:05;;;;;;;17.42;5.63;;;1.80;99.90;;;;;;5053044;28;20059;-55
2022/02/27 00:35:32;;;;;;;27.65;6.03;;;1.80;99.90;;;;;;5058221;28;20200;-55
2022/02/27 00:37:58;;;;;;;18.52;4.45;;;1.90;99.90;;;;;;5027769;28;20127;-50
2022/02/27 00:40:23;;;;;;;24.77;5.80;;;1.90;99.90;;;;;;5048539;28;20630;-61
2022/02/27 00:42:49;;;;;;;16.27;4.72;;;1.80;99.90;;;;;;5043841;28;20139;-52
2022/02/27 00:45:15;;;;;;;23.73;5.32;;;1.80;99.90;;;;;;5035323;28;20119;-57
2022/02/27 00:47:42;;;;;;;31.90;6.05;;;1.80;99.90;;;;;;5037878;28;20056;-51
2022/02/27 00:50:09;;;;;;;31.02;5.07;;;1.80;99.90;;;;;;5060241;28;20443;-55
2022/02/27 00:52:35;;;;;;;20.42;5.53;;;1.80;99.90;;;;;;5023969;28;20074;-54
2022/02/27 00:55:01;;;;;;;21.13;5.57;;;1.80;99.90;;;;;;5032237;28;20048;-49
2022/02/27 00:57:28;;;;;;;14.93;5.85;;;1.80;99.90;;;;;;5040861;28;20045;-57
2022/02/27 00:59:55;;;;;;;29.23;5.57;;;1.80;99.90;;;;;;5027012;28;20051;-56
2022/02/27 01:02:21;;;;;;;17.45;5.13;;;1.80;99.90;;;;;;5050595;28;20047;-57
2022/02/27 01:04:47;;;;;;;25.10;5.75;;;1.80;99.90;;;;;;5048894;28;20049;-61
2022/02/27 01:07:12;;;;;;;20.27;5.88;;;1.80;99.90;;;;;;5047343;28;20521;-52
2022/02/27 01:09:38;;;;;;;19.88;5.43;;;1.80;99.90;;;;;;5048078;28;20376;-60
2022/02/27 01:12:05;;;;;;;26.33;5.55;;;1.80;99.90;;;;;;5048581;28;20068;-53
2022/02/27 01:14:31;;;;;;;26.80;6.05;;;1.70;99.90;;;;;;5031940;28;20128;-58
2022/02/27 01:17:01;;;;;;;26.40;5.40;;;1.70;99.90;;;;;;5052703;28;20139;-47
2022/02/27 01:19:27;;;;;;;17.98;5.75;;;1.60;99.90;;;;;;5060613;28;20047;-61
2022/02/27 01:21:53;;;;;;;20.63;5.70;;;1.60;99.90;;;;;;5051359;28;20051;-55
2022/02/27 01:24:19;;;;;;;27.52;5.50;;;1.50;99.90;;;;;;5061410;28;20119;-54
2022/02/27 01:26:46;;;;;;;22.67;5.90;;;1.60;99.90;;;;;;5068046;28;20058;-52
2022/02/27 01:29:12;;;;;;;22.02;5.70;;;1.50;99.90;;;;;;5048517;28;20490;-51
2022/02/27 01:31:38;;;;;;;22.38;5.90;;;1.60;99.90;;;;;;5067385;28;20047;-53
2022/02/27 01:34:04;;;;;;;24.38;5.82;;;1.60;99.90;;;;;;5044889;28;20045;-49
2022/02/27 01:36:30;;;;;;;25.23;6.03;;;1.50;99.90;;;;;;5040546;28;20047;-51
2022/02/27 01:38:55;;;;;;;28.40;6.80;;;1.50;99.90;;;;;;5060598;28;20473;-54
2022/02/27 01:41:21;;;;;;;18.63;4.90;;;1.50;99.90;;;;;;5048998;28;20058;-65
2022/02/27 01:43:47;;;;;;;23.55;6.13;;;1.40;99.90;;;;;;5067777;28;20076;-56
2022/02/27 01:46:16;;;;;;;22.98;6.63;;;1.50;99.90;;;;;;5048945;28;20047;-48
2022/02/27 01:48:42;;;;;;;18.40;5.72;;;1.50;99.90;;;;;;5067164;28;20363;-50
2022/02/27 01:51:08;;;;;;;24.83;7.32;;;1.40;99.90;;;;;;5066507;28;20193;-53
2022/02/27 01:53:34;;;;;;;30.25;6.32;;;1.40;99.90;;;;;;5060900;28;20045;-54
2022/02/27 01:56:00;;;;;;;26.90;6.78;;;1.40;99.90;;;;;;5067385;28;20052;-59
2022/02/27 01:58:27;;;;;;;22.88;6.03;;;1.40;99.90;;;;;;5048440;28;20044;-60
2022/02/27 02:00:56;;;;;;;31.10;8.18;;;1.40;99.90;;;;;;5053445;28;20047;-52
2022/02/27 02:03:23;;;;;;;22.30;6.22;;;1.30;99.90;;;;;;5061903;28;20593;-47
2022/02/27 02:05:48;;;;;;;33.72;6.70;;;1.20;99.90;;;;;;5049231;28;20131;-54
2022/02/27 02:08:15;;;;;;;26.90;5.85;;;1.20;99.90;;;;;;5048283;28;20127;-56
2022/02/27 02:10:44;;;;;;;18.52;6.22;;;1.20;99.90;;;;;;5066535;28;20048;-52
2022/02/27 02:13:10;;;;;;;22.13;6.15;;;1.20;99.90;;;;;;5066811;28;20054;-58
2022/02/27 02:15:36;;;;;;;32.22;6.32;;;1.20;99.90;;;;;;5047288;28;20086;-50
2022/02/27 02:18:02;;;;;;;28.83;6.35;;;1.20;99.90;;;;;;5049065;28;20040;-51
2022/02/27 02:20:28;;;;;;;26.15;5.93;;;1.10;99.90;;;;;;5047927;28;20045;-53
2022/02/27 02:22:54;;;;;;;26.10;5.43;;;1.20;99.90;;;;;;5048578;28;20378;-52
2022/02/27 02:25:19;;;;;;;25.80;6.00;;;1.20;99.90;;;;;;5035124;28;20124;-55
2022/02/27 02:27:45;;;;;;;21.10;5.18;;;1.20;99.90;;;;;;5028894;28;20246;-51
2022/02/27 02:30:11;;;;;;;26.38;6.07;;;1.20;99.90;;;;;;5045370;28;20041;-50
2022/02/27 02:32:50;;;;;;;28.13;6.30;;;1.10;99.90;;;;;;5031002;28;20373;-54
2022/02/27 02:35:16;;;;;;;29.58;6.03;;;1.10;99.90;;;;;;5047670;28;20109;-54
2022/02/27 02:37:41;;;;;;;23.20;6.28;;;1.10;99.90;;;;;;5065123;28;20055;-61
2022/02/27 02:40:08;;;;;;;28.10;6.75;;;1.10;99.90;;;;;;5047872;28;20037;-55
2022/02/27 02:42:41;;;;;;;35.22;6.90;;;1.10;99.90;;;;;;5047154;28;20121;-53
2022/02/27 02:45:09;;;;;;;26.70;6.55;;;1.10;99.90;;;;;;5043047;28;20093;-52
2022/02/27 02:47:46;;;;;;;23.70;6.15;;;1.10;99.90;;;;;;5064349;28;20520;-51
2022/02/27 02:50:13;;;;;;;27.00;6.90;;;1.10;99.90;;;;;;5048035;28;20068;-55
2022/02/27 02:52:39;;;;;;;23.92;6.93;;;1.10;99.90;;;;;;5048127;28;20045;-51
2022/02/27 02:55:08;;;;;;;25.00;6.57;;;1.00;99.90;;;;;;5027422;28;20029;-53
2022/02/27 02:57:36;;;;;;;17.95;5.50;;;1.10;99.90;;;;;;5040231;28;20129;-58
2022/02/27 03:00:03;;;;;;;23.33;5.93;;;1.10;99.90;;;;;;5031153;28;20414;-49
2022/02/27 03:02:29;;;;;;;18.80;6.45;;;1.10;99.90;;;;;;5047752;28;20093;-58
2022/02/27 03:04:55;;;;;;;24.90;7.22;;;1.10;99.90;;;;;;5065066;28;20125;-52
2022/02/27 03:07:21;;;;;;;27.02;6.65;;;1.10;99.90;;;;;;5048113;28;20557;-49
2022/02/27 03:09:47;;;;;;;19.40;6.57;;;1.10;99.90;;;;;;5065862;28;20036;-59
2022/02/27 03:12:12;;;;;;;17.63;5.65;;;1.10;99.90;;;;;;5031131;28;20052;-57
2022/02/27 03:14:38;;;;;;;26.60;6.80;;;1.10;99.90;;;;;;5066021;28;20115;-51
2022/02/27 03:17:04;;;;;;;26.27;6.88;;;1.10;99.90;;;;;;5059043;28;20053;-55
2022/02/27 03:19:31;;;;;;;24.65;5.88;;;1.10;99.90;;;;;;5065729;28;20444;-65
2022/02/27 03:21:56;;;;;;;21.55;6.60;;;1.00;99.90;;;;;;5065343;28;20055;-55
2022/02/27 03:24:22;;;;;;;23.23;6.38;;;1.00;99.90;;;;;;5047724;28;20429;-56
2022/02/27 03:26:48;;;;;;;26.90;6.75;;;1.00;99.90;;;;;;5067888;28;20181;-58
2022/02/27 03:29:14;;;;;;;23.67;7.25;;;0.90;99.90;;;;;;5071168;28;20040;-55
2022/02/27 03:31:39;;;;;;;22.52;5.93;;;0.90;99.90;;;;;;5064187;28;20527;-52
2022/02/27 03:34:05;;;;;;;21.27;6.38;;;0.80;99.90;;;;;;5047233;28;20392;-57
2022/02/27 03:36:31;;;;;;;21.38;6.20;;;0.80;99.90;;;;;;5063993;28;20040;-55
2022/02/27 03:38:57;;;;;;;29.73;6.05;;;0.80;99.90;;;;;;5049449;28;20056;-49
2022/02/27 03:41:22;;;;;;;21.42;6.43;;;0.70;99.90;;;;;;5065941;28;20044;-62
2022/02/27 03:43:48;;;;;;;23.92;6.38;;;0.70;99.90;;;;;;5046703;28;20049;-47
2022/02/27 03:46:14;;;;;;;19.98;5.65;;;0.70;99.90;;;;;;5065827;28;20033;-50
2022/02/27 03:48:40;;;;;;;24.02;6.10;;;0.70;99.90;;;;;;5046205;28;20395;-59
2022/02/27 03:51:06;;;;;;;19.90;5.90;;;0.70;99.90;;;;;;5048539;28;20048;-56
2022/02/27 03:53:32;;;;;;;32.08;6.70;;;0.60;99.90;;;;;;5069842;28;20044;-54
2022/02/27 03:55:58;;;;;;;24.55;5.70;;;0.60;99.90;;;;;;5068545;28;20114;-55
2022/02/27 03:58:24;;;;;;;32.80;6.75;;;0.60;99.90;;;;;;5074587;28;20129;-51
2022/02/27 04:00:51;;;;;;;26.85;6.68;;;0.50;99.90;;;;;;5048880;28;20388;-50
2022/02/27 04:03:16;;;;;;;26.50;6.45;;;0.50;99.90;;;;;;5056660;28;20056;-49
2022/02/27 04:05:42;;;;;;;22.10;5.82;;;0.40;99.90;;;;;;5084552;28;20044;-47
2022/02/27 04:08:09;;;;;;;21.42;5.50;;;0.40;99.90;;;;;;5063464;28;20549;-57
2022/02/27 04:10:34;;;;;;;18.05;5.47;;;0.40;99.90;;;;;;5061817;28;20045;-64
2022/02/27 04:13:00;;;;;;;24.90;4.97;;;0.40;99.90;;;;;;5062107;28;20446;-58
2022/02/27 04:15:26;;;;;;;18.38;4.93;;;0.40;99.90;;;;;;5053097;28;20102;-56
2022/02/27 04:17:52;;;;;;;23.50;5.68;;;0.50;99.90;;;;;;5006513;28;20048;-49
2022/02/27 04:20:18;;;;;;;17.60;5.30;;;0.50;99.90;;;;;;5032066;28;20338;-53
2022/02/27 04:22:45;;;;;;;19.88;4.93;;;0.50;99.90;;;;;;5028979;28;20116;-49
2022/02/27 04:25:11;;;;;;;16.67;5.38;;;0.60;99.90;;;;;;5048451;28;20102;-60
2022/02/27 04:27:36;;;;;;;21.83;5.15;;;0.60;99.90;;;;;;5024960;28;20479;-52
2022/02/27 04:30:03;;;;;;;20.20;5.38;;;0.60;99.90;;;;;;5017987;28;20041;-58
2022/02/27 04:32:29;;;;;;;14.43;4.55;;;0.60;99.90;;;;;;5020623;28;20030;-48
2022/02/27 04:34:55;;;;;;;16.30;3.95;;;0.60;99.90;;;;;;5029185;28;20037;-57
2022/02/27 04:37:21;;;;;;;20.70;5.20;;;0.60;99.90;;;;;;5021225;28;20576;-52
2022/02/27 04:39:47;;;;;;;14.90;4.13;;;0.60;99.90;;;;;;5029536;28;20091;-57
2022/02/27 04:42:12;;;;;;;19.75;5.38;;;0.50;99.90;;;;;;5034030;28;20079;-55
2022/02/27 04:44:38;;;;;;;16.85;5.00;;;0.60;99.90;;;;;;5049258;28;20041;-53
2022/02/27 04:47:04;;;;;;;16.35;4.45;;;0.60;99.90;;;;;;5055084;28;20045;-49
2022/02/27 04:49:29;;;;;;;14.63;5.35;;;0.60;99.90;;;;;;5033667;28;20052;-56
2022/02/27 04:51:55;;;;;;;23.60;5.10;;;0.60;99.90;;;;;;5045144;28;20048;-49
2022/02/27 04:54:21;;;;;;;17.85;4.95;;;0.60;99.90;;;;;;5033406;28;20361;-56
2022/02/27 04:56:47;;;;;;;24.10;5.13;;;0.60;99.90;;;;;;5031725;28;20049;-56
2022/02/27 04:59:12;;;;;;;16.35;4.65;;;0.60;99.90;;;;;;5038591;28;20414;-52
2022/02/27 05:01:39;;;;;;;16.00;4.20;;;0.60;99.90;;;;;;5053311;28;20037;-65
2022/02/27 05:04:05;;;;;;;26.80;4.68;;;0.60;99.90;;;;;;5054399;28;20045;-56
2022/02/27 05:06:33;;;;;;;20.10;4.72;;;0.60;99.90;;;;;;5033010;28;20063;-56
2022/02/27 05:09:00;;;;;;;18.08;5.07;;;0.60;99.90;;;;;;5029722;28;20542;-58
2022/02/27 05:11:26;;;;;;;15.75;4.45;;;0.60;99.90;;;;;;5049471;28;20045;-51
2022/02/27 05:13:51;;;;;;;19.10;4.47;;;0.60;99.90;;;;;;5029206;28;20063;-58
2022/02/27 05:16:17;;;;;;;17.08;4.82;;;0.60;99.90;;;;;;5013900;28;20052;-55
2022/02/27 05:18:43;;;;;;;15.52;4.00;;;0.60;99.90;;;;;;5065830;28;20055;-55
2022/02/27 05:21:10;;;;;;;15.25;4.10;;;0.60;99.90;;;;;;5067484;28;20052;-52
2022/02/27 05:23:36;;;;;;;14.27;3.97;;;0.60;99.90;;;;;;5073025;28;20068;-58
2022/02/27 05:26:01;;;;;;;15.23;4.15;;;0.60;99.90;;;;;;5067024;28;20082;-48
2022/02/27 05:28:27;;;;;;;17.35;3.85;;;0.60;99.90;;;;;;5067949;28;20565;-57
2022/02/27 05:30:54;;;;;;;13.75;4.20;;;0.70;99.90;;;;;;5048348;28;20045;-64
2022/02/27 05:33:20;;;;;;;16.48;4.00;;;0.70;99.90;;;;;;5049823;28;20041;-53
2022/02/27 05:35:46;;;;;;;13.30;3.95;;;0.60;99.90;;;;;;5066423;28;20391;-50
2022/02/27 05:38:12;;;;;;;13.65;3.78;;;0.70;99.90;;;;;;5049625;28;20119;-60
2022/02/27 05:40:38;;;;;;;15.40;4.00;;;0.80;99.90;;;;;;5049006;28;20468;-49
2022/02/27 05:43:04;;;;;;;18.40;4.03;;;0.70;99.90;;;;;;5048638;28;20047;-50
2022/02/27 05:45:30;;;;;;;13.63;3.30;;;0.70;99.90;;;;;;5049726;28;20398;-53
2022/02/27 05:47:55;;;;;;;15.18;4.55;;;0.70;99.90;;;;;;5066620;28;20051;-54
2022/02/27 05:50:21;;;;;;;9.27;3.85;;;0.80;99.90;;;;;;5067470;28;20531;-53
2022/02/27 05:52:47;;;;;;;12.50;4.10;;;0.70;99.90;;;;;;5047231;28;20036;-51
2022/02/27 05:55:13;;;;;;;15.48;3.60;;;0.80;99.90;;;;;;5067015;28;20028;-57
2022/02/27 05:57:39;;;;;;;12.13;3.67;;;0.70;99.90;;;;;;5066533;28;20071;-57
2022/02/27 06:00:05;;;;;;;16.67;4.00;;;0.70;99.90;;;;;;5048971;28;20467;-49
2022/02/27 06:02:31;;;;;;;10.45;3.88;;;0.70;99.90;;;;;;5048678;28;20041;-49
2022/02/27 06:04:57;;;;;;;13.30;3.75;;;0.70;99.90;;;;;;5065767;28;20056;-48
2022/02/27 06:07:23;;;;;;;13.70;4.18;;;0.70;99.90;;;;;;5049233;28;20087;-55
2022/02/27 06:09:48;;;;;;;12.40;3.42;;;0.80;99.90;;;;;;5065491;28;20502;-51
2022/02/27 06:12:14;;;;;;;9.82;3.47;;;0.70;99.90;;;;;;5067295;28;20101;-52
2022/02/27 06:14:41;;;;;;;12.23;3.67;;;0.70;99.90;;;;;;5065669;28;20048;-53
2022/02/27 06:17:07;;;;;;;14.10;3.63;;;0.70;99.90;;;;;;5066109;28;20061;-52
2022/02/27 06:19:33;;;;;;;13.95;3.35;;;0.80;99.90;;;;;;5066146;28;20359;-50
2022/02/27 06:21:59;;;;;;;10.10;4.18;;;0.80;99.90;;;;;;5048410;28;20117;-64
2022/02/27 06:24:25;;;;;;;17.77;3.90;;;0.80;99.90;;;;;;5065899;28;20107;-58
2022/02/27 06:26:50;;;;;;;16.10;3.58;;;0.80;99.90;;;;;;5066076;28;20044;-61
2022/02/27 06:29:16;;;;;;;15.40;4.03;;;0.90;99.90;;;;;;5048881;28;20045;-57
2022/02/27 06:31:42;;;;;;;15.88;3.88;;;0.90;99.90;;;;;;5065652;28;20079;-58
2022/02/27 06:34:08;;;;;;;19.05;3.50;;;0.90;99.90;;;;;;5066557;28;20044;-49
2022/02/27 06:36:34;;;;;;;12.98;3.83;;;0.90;99.90;;;;;;5065211;28;20466;-57
2022/02/27 06:38:59;;;;;;;14.68;3.95;;;0.90;99.90;;;;;;5066449;28;20485;-51
2022/02/27 06:41:25;;;;;;;15.50;3.25;;;1.00;99.90;;;;;;5047715;28;20052;-52
2022/02/27 06:43:51;;;;;;;16.90;3.80;;;1.00;99.90;;;;;;5065729;28;20097;-62
2022/02/27 06:46:17;;;;;;;18.70;3.63;;;1.00;99.90;;;;;;5065560;28;20055;-50
2022/02/27 06:48:42;;;;;;;9.95;3.15;;;1.00;99.90;;;;;;5047993;28;20058;-64
2022/02/27 06:51:09;;;;;;;11.68;3.38;;;1.10;99.90;;;;;;5048372;28;20634;-49
2022/02/27 06:53:35;;;;;;;9.40;2.63;;;1.10;99.90;;;;;;5065598;28;20102;-52
2022/02/27 06:56:01;;;;;;;17.15;3.42;;;1.10;99.90;;;;;;5030281;28;20666;-50
2022/02/27 06:58:27;;;;;;;14.55;4.03;;;1.10;99.90;;;;;;5065599;28;20119;-53
2022/02/27 07:00:54;;;;;;;7.45;3.33;;;1.20;99.90;;;;;;5065655;28;20044;-57
2022/02/27 07:03:19;;;;;;;14.32;3.42;;;1.20;99.90;;;;;;5047945;28;20132;-58
2022/02/27 07:05:45;;;;;;;15.90;3.70;;;1.30;99.90;;;;;;5047574;28;20466;-59
2022/02/27 07:08:11;;;;;;;12.73;3.28;;;1.30;99.90;;;;;;5064800;28;20049;-62
2022/02/27 07:10:36;;;;;;;10.60;3.58;;;1.40;99.90;;;;;;5046985;28;20376;-63
2022/02/27 07:13:03;;;;;;;18.40;3.42;;;1.50;99.90;;;;;;5066216;28;20474;-51
2022/02/27 07:15:29;;;;;;;20.42;3.80;;;1.50;99.90;;;;;;5065383;28;20509;-54
2022/02/27 07:17:56;;;;;;;12.73;3.10;;;1.60;99.90;;;;;;5030323;28;20060;-56
2022/02/27 07:20:23;;;;;;;16.60;3.20;;;1.60;99.90;;;;;;5047476;28;20056;-55
2022/02/27 07:22:48;;;;;;;14.05;3.50;;;1.70;99.90;;;;;;5047454;28;20040;-52
2022/02/27 07:25:14;;;;;;;10.95;2.63;;;1.80;99.90;;;;;;5065077;28;20098;-53
2022/02/27 07:27:40;;;;;;;14.05;3.75;;;1.80;99.90;;;;;;5069139;28;20057;-56
2022/02/27 07:30:06;;;;;;;23.05;3.80;;;1.80;99.90;;;;;;5051642;28;20052;-62
2022/02/27 07:32:33;;;;;;;8.43;2.53;;;1.90;99.90;;;;;;5068857;28;20116;-53
2022/02/27 07:34:59;;;;;;;13.05;3.53;;;1.90;99.90;;;;;;5051280;28;20048;-55
2022/02/27 07:37:25;;;;;;;7.18;1.98;;;1.90;99.90;;;;;;5034609;28;20102;-51
2022/02/27 07:39:51;;;;;;;10.25;2.72;;;2.00;99.90;;;;;;5069684;28;20490;-56
2022/02/27 07:42:17;;;;;;;13.75;2.83;;;2.00;99.90;;;;;;5051418;28;20036;-53
2022/02/27 07:44:43;;;;;;;10.02;3.10;;;2.00;99.90;;;;;;5069220;28;20067;-58
2022/02/27 07:47:08;;;;;;;22.45;5.03;;;2.00;99.90;;;;;;5046625;28;20398;-53
2022/02/27 07:49:34;;;;;;;13.23;3.53;;;2.10;99.90;;;;;;5051003;28;20083;-56
2022/02/27 07:52:01;;;;;;;18.00;3.00;;;2.20;99.90;;;;;;5051179;28;20110;-60
2022/02/27 07:54:27;;;;;;;10.70;3.03;;;2.20;99.90;;;;;;5068866;28;20078;-53
2022/02/27 07:56:52;;;;;;;16.67;3.97;;;2.20;99.90;;;;;;5069627;28;20040;-53
2022/02/27 07:59:18;;;;;;;12.65;3.75;;;2.30;99.90;;;;;;5050667;28;20063;-49
2022/02/27 08:01:44;;;;;;;12.35;3.58;;;2.30;99.90;;;;;;5017507;28;20125;-49
2022/02/27 08:04:10;;;;;;;14.32;3.40;;;2.30;99.90;;;;;;5068822;28;20486;-53
2022/02/27 08:06:36;;;;;;;12.75;3.00;;;2.40;99.90;;;;;;5049702;28;20048;-64
2022/02/27 08:09:03;;;;;;;12.07;4.70;;;2.40;99.90;;;;;;5068430;28;20054;-48
2022/02/27 08:11:30;;;;;;;13.82;3.97;;;2.40;99.90;;;;;;5050085;28;20462;-53
2022/02/27 08:13:58;;;;;;;5.05;2.30;;;2.40;99.90;;;;;;5050832;28;20386;-63
2022/02/27 08:16:25;;;;;;;14.32;3.30;;;2.50;99.90;;;;;;5050368;28;20091;-51
2022/02/27 08:18:50;;;;;;;9.13;2.58;;;2.50;99.90;;;;;;5068723;28;20048;-60
2022/02/27 08:21:16;;;;;;;9.20;2.20;;;2.50;99.90;;;;;;5017552;28;20616;-51
2022/02/27 08:23:42;;;;;;;5.75;2.40;;;2.50;99.90;;;;;;5055189;28;20420;-52
2022/02/27 08:26:08;;;;;;;16.45;3.05;;;2.60;99.90;;;;;;5050561;28;20119;-56
2022/02/27 08:28:34;;;;;;;12.40;3.38;;;2.70;99.90;;;;;;5067629;28;20032;-53
2022/02/27 08:31:00;;;;;;;12.55;2.47;;;2.80;99.90;;;;;;5050930;28;20063;-50
2022/02/27 08:33:26;;;;;;;7.85;3.55;;;2.80;99.90;;;;;;5050323;28;20086;-50
2022/02/27 08:35:53;;;;;;;12.20;3.35;;;2.90;99.90;;;;;;5053329;28;20143;-55
2022/02/27 08:38:21;;;;;;;14.95;3.25;;;3.00;99.90;;;;;;5048550;28;20055;-63
2022/02/27 08:40:48;;;;;;;9.55;3.47;;;3.10;99.90;;;;;;5050545;28;20045;-53
2022/02/27 08:43:14;;;;;;;15.23;3.63;;;3.20;99.90;;;;;;5050221;28;20543;-50
2022/02/27 08:45:40;;;;;;;16.02;3.60;;;3.20;99.90;;;;;;5067824;28;20084;-50
2022/02/27 08:48:07;;;;;;;15.73;4.35;;;3.30;99.90;;;;;;5068066;28;20044;-58
2022/02/27 08:50:33;;;;;;;12.38;3.38;;;3.40;99.90;;;;;;5067177;28;20036;-58
2022/02/27 08:52:58;;;;;;;16.80;3.58;;;3.50;99.90;;;;;;5064747;28;20033;-59
2022/02/27 08:55:24;;;;;;;10.63;3.85;;;3.60;99.90;;;;;;5032711;28;20076;-57
2022/02/27 08:57:50;;;;;;;14.15;3.53;;;3.70;99.90;;;;;;5067054;28;20870;-50
2022/02/27 09:00:18;;;;;;;10.60;2.45;;;3.70;99.90;;;;;;5046561;28;20537;-49
2022/02/27 09:02:45;;;;;;;15.15;3.30;;;3.80;99.90;;;;;;5067146;28;20052;-58
2022/02/27 09:05:11;;;;;;;10.23;3.10;;;3.80;99.90;;;;;;5067937;28;20098;-57
2022/02/27 09:07:37;;;;;;;9.65;3.47;;;3.80;99.90;;;;;;5032415;28;20048;-51
2022/02/27 09:10:04;;;;;;;11.57;2.67;;;4.00;99.90;;;;;;5049804;28;20444;-61
2022/02/27 09:12:31;;;;;;;18.08;3.67;;;4.10;99.90;;;;;;5067114;28;20128;-55
2022/02/27 09:14:57;;;;;;;13.55;3.17;;;4.20;99.90;;;;;;5064148;28;20106;-48
2022/02/27 09:17:23;;;;;;;14.95;3.80;;;4.20;99.90;;;;;;5044083;28;20060;-57
2022/02/27 09:19:49;;;;;;;15.80;5.57;;;4.20;99.90;;;;;;5030645;28;20040;-57
2022/02/27 09:22:15;;;;;;;13.55;3.88;;;4.30;99.90;;;;;;5047197;28;20045;-62
2022/02/27 09:24:41;;;;;;;23.80;4.57;;;4.30;99.90;;;;;;5046061;28;20326;-61
2022/02/27 09:27:06;;;;;;;10.27;2.85;;;4.40;99.90;;;;;;5047030;28;20180;-62
2022/02/27 09:29:32;;;;;;;10.38;3.78;;;4.40;99.90;;;;;;5032833;28;20039;-51
2022/02/27 09:31:58;;;;;;;8.63;3.40;;;4.50;99.90;;;;;;5047143;28;20422;-58
2022/02/27 09:34:24;;;;;;;14.32;3.30;;;4.60;99.90;;;;;;5043473;28;20463;-56
2022/02/27 09:36:50;;;;;;;18.40;4.45;;;4.60;99.90;;;;;;5045115;28;20049;-58
2022/02/27 09:39:16;;;;;;;6.00;3.13;;;4.70;99.90;;;;;;5045264;28;20049;-57
2022/02/27 09:41:42;;;;;;;8.02;3.53;;;4.80;99.90;;;;;;5064280;28;20051;-56
2022/02/27 09:44:08;;;;;;;10.07;2.78;;;4.90;99.90;;;;;;5030561;28;20044;-60
2022/02/27 09:46:36;;;;;;;14.98;4.05;;;4.90;99.90;;;;;;5032009;28;20613;-52
2022/02/27 09:49:02;;;;;;;11.73;3.55;;;5.10;99.90;;;;;;5049053;28;20048;-54
2022/02/27 09:51:28;;;;;;;3.65;1.65;;;5.10;99.90;;;;;;5045349;28;20052;-51
2022/02/27 09:53:54;;;;;;;2.92;1.70;;;5.20;99.90;;;;;;5048153;28;20060;-54
2022/02/27 09:56:20;;;;;;;5.97;2.42;;;5.20;99.90;;;;;;5045168;28;20044;-52
2022/02/27 09:58:47;;;;;;;14.40;4.93;;;5.20;99.90;;;;;;5046494;28;20919;-59
2022/02/27 10:01:14;;;;;;;3.67;2.13;;;5.30;99.90;;;;;;5064151;28;20052;-53
2022/02/27 10:03:41;;;;;;;7.70;2.58;;;5.50;99.90;;;;;;5064504;28;20056;-66
2022/02/27 10:06:09;;;;;;;9.13;2.40;;;5.50;99.90;;;;;;5047550;28;20418;-64
2022/02/27 10:08:43;;;;;;;12.55;3.25;;;5.50;99.90;;;;;;5063221;28;20674;-61
2022/02/27 10:11:27;;;;;;;12.38;3.60;;;5.50;99.90;;;;;;5047477;28;20033;-55
2022/02/27 10:13:55;;;;;;;7.43;2.45;;;5.50;99.90;;;;;;5029880;28;20444;-61
2022/02/27 10:16:27;;;;;;;7.80;3.40;;;5.60;99.90;;;;;;5047102;28;20056;-59
2022/02/27 10:18:55;;;;;;;12.85;3.72;;;5.80;99.90;;;;;;5048600;28;20052;-59
2022/02/27 10:21:25;;;;;;;11.45;3.60;;;5.80;99.90;;;;;;5064547;28;20040;-58
2022/02/27 10:24:09;;;;;;;9.43;3.28;;;5.80;99.90;;;;;;5048348;28;20045;-59
2022/02/27 10:26:36;;;;;;;7.63;2.83;;;6.00;99.90;;;;;;5044890;28;20169;-62
2022/02/27 10:29:07;;;;;;;12.35;4.68;;;6.00;99.90;;;;;;5064711;28;20389;-62
2022/02/27 10:31:34;;;;;;;12.48;3.35;;;6.00;99.90;;;;;;5027719;28;20045;-59
2022/02/27 10:34:14;;;;;;;2.92;2.20;;;6.10;99.90;;;;;;5065016;28;20044;-60
2022/02/27 10:37:08;;;;;;;14.85;3.95;;;6.20;99.90;;;;;;5065925;28;20049;-59
2022/02/27 10:39:46;;;;;;;9.15;2.03;;;6.20;99.90;;;;;;5046128;28;20045;-57
2022/02/27 10:42:16;;;;;;;10.35;3.45;;;6.30;99.90;;;;;;5044377;28;20400;-53
2022/02/27 10:44:50;;;;;;;10.38;4.45;;;6.40;99.90;;;;;;5066023;28;20575;-54
2022/02/27 10:47:18;;;;;;;4.82;1.83;;;6.30;99.90;;;;;;5042148;28;20037;-59
2022/02/27 10:49:45;;;;;;;12.57;4.05;;;6.40;99.90;;;;;;5045579;28;20041;-55
2022/02/27 10:52:24;;;;;;;5.32;2.95;;;6.40;99.90;;;;;;5062826;28;20114;-60
2022/02/27 10:55:02;;;;;;;6.47;2.55;;;6.40;99.90;;;;;;5028488;28;20593;-60
2022/02/27 10:57:37;;;;;;;7.95;1.95;;;6.50;99.90;;;;;;5045364;28;20044;-60
2022/02/27 11:00:19;;;;;;;5.53;1.98;;;6.60;99.90;;;;;;5062469;28;20052;-58
2022/02/27 11:02:49;;;;;;;6.78;1.58;;;6.50;99.90;;;;;;5046178;28;20052;-57
2022/02/27 11:05:17;;;;;;;3.22;2.33;;;6.50;99.90;;;;;;5045655;28;20400;-61
2022/02/27 11:07:45;;;;;;;3.45;1.48;;;6.50;99.90;;;;;;5042521;28;20499;-63
2022/02/27 11:10:20;;;;;;;11.13;3.17;;;6.60;99.90;;;;;;5044860;28;20076;-63
2022/02/27 11:12:47;;;;;;;10.70;2.95;;;6.70;99.90;;;;;;5063277;28;20102;-59
2022/02/27 11:15:18;;;;;;;6.03;2.67;;;6.80;99.90;;;;;;5065800;28;20052;-55
2022/02/27 11:17:45;;;;;;;3.38;1.98;;;6.90;99.90;;;;;;5027911;28;20055;-56
2022/02/27 11:20:13;;;;;;;8.55;2.95;;;7.10;99.90;;;;;;5022948;28;20614;-60
2022/02/27 11:22:39;;;;;;;9.85;2.50;;;7.10;99.90;;;;;;5045438;28;20044;-62
2022/02/27 11:25:10;;;;;;;11.65;2.95;;;7.10;99.90;;;;;;5047493;28;20054;-60
2022/02/27 11:27:54;;;;;;;11.63;3.30;;;7.00;99.90;;;;;;5062721;28;20041;-58
2022/02/27 11:30:29;;;;;;;3.00;1.80;;;7.00;99.90;;;;;;5064351;28;20123;-62
2022/02/27 11:32:57;;;;;;;15.50;3.92;;;7.10;99.90;;;;;;5048794;28;20433;-55
2022/02/27 11:35:35;;;;;;;10.18;3.45;;;7.20;99.90;;;;;;5045889;28;20102;-61
2022/02/27 11:38:02;;;;;;;13.43;3.33;;;7.30;99.90;;;;;;5030970;28;20502;-55
2022/02/27 11:40:37;;;;;;;7.63;2.88;;;7.20;99.90;;;;;;5065141;28;20036;-60
2022/02/27 11:43:04;;;;;;;4.80;1.77;;;7.20;99.90;;;;;;5047454;28;20383;-66
2022/02/27 11:45:39;;;;;;;6.00;3.25;;;7.20;99.90;;;;;;5038991;28;20059;-61
2022/02/27 11:48:06;;;;;;;14.70;3.22;;;7.20;99.90;;;;;;5046781;28;20121;-57
2022/02/27 11:50:35;;;;;;;10.48;2.75;;;7.20;99.90;;;;;;5047340;28;20040;-58
2022/02/27 11:53:02;;;;;;;2.25;1.90;;;7.20;99.90;;;;;;5046972;28;20420;-57
2022/02/27 11:55:43;;;;;;;3.80;2.05;;;7.20;99.90;;;;;;5045974;28;20106;-57
2022/02/27 11:58:19;;;;;;;7.93;2.45;;;7.20;99.90;;;;;;5047283;28;20052;-57
2022/02/27 12:00:45;;;;;;;3.95;2.60;;;7.30;99.90;;;;;;5046431;28;20127;-56
2022/02/27 12:03:29;;;;;;;6.93;2.15;;;7.30;99.90;;;;;;5045004;28;20225;-59
2022/02/27 12:06:03;;;;;;;8.50;2.92;;;7.30;99.90;;;;;;5055315;28;20059;-63
2022/02/27 12:08:41;;;;;;;13.38;4.47;;;7.30;99.90;;;;;;5044656;28;20720;-56
2022/02/27 12:11:29;;;;;;;13.70;3.67;;;7.30;99.90;;;;;;5046955;28;20078;-58
2022/02/27 12:14:04;;;;;;;9.32;3.35;;;7.40;99.90;;;;;;5033016;28;20045;-59
2022/02/27 12:16:35;;;;;;;7.28;2.85;;;7.50;99.90;;;;;;5049229;28;20376;-55
2022/02/27 12:19:02;;;;;;;9.35;2.70;;;7.60;99.90;;;;;;5064120;28;20470;-58
2022/02/27 12:21:36;;;;;;;7.97;2.88;;;7.50;99.90;;;;;;5066242;28;20080;-50
2022/02/27 12:24:07;;;;;;;11.63;3.10;;;7.50;99.90;;;;;;5067105;28;20384;-59
2022/02/27 12:26:41;;;;;;;1.85;1.25;;;7.50;99.90;;;;;;5048298;28;20064;-62
2022/02/27 12:29:07;;;;;;;7.40;2.97;;;7.50;99.90;;;;;;5062416;28;20048;-66
2022/02/27 12:31:34;;;;;;;10.57;3.30;;;7.60;99.90;;;;;;5029389;28;20414;-65
2022/02/27 12:34:12;;;;;;;13.10;3.38;;;7.60;99.90;;;;;;5065954;28;20049;-66
2022/02/27 12:36:39;;;;;;;11.82;3.13;;;7.70;99.90;;;;;;5028420;28;20124;-62
2022/02/27 12:39:14;;;;;;;5.25;2.45;;;7.70;99.90;;;;;;5063774;28;20071;-66
2022/02/27 12:41:43;;;;;;;9.10;3.55;;;7.70;99.00;;;;;;5066225;28;20068;-57
2022/02/27 12:44:11;;;;;;;7.68;2.40;;;7.70;99.90;;;;;;5048407;28;20451;-62
2022/02/27 12:46:37;;;;;;;7.35;3.03;;;7.70;99.90;;;;;;5050212;28;20129;-58
2022/02/27 12:51:52;;;;;;;9.65;3.58;;;7.70;99.90;;;;;;5066250;28;20053;-63